Time;durP1;ratioP1;P1;durP2;ratioP2;P2;SDS_P1;SDS_P2;PMS_P1;PMS_P2;Temp;Humidity;BMP_temperature;BMP_pressure;BME280_temperature;BME280_humidity;BME280_pressure;Samples;Min_cycle;Max_cycle;Signal;HPM_P1;HPM_P2
2022/10/30 00:00:09;;;;;;;18.73;4.25;;;18.50;98.20;;;;;;5049924;28;20112;-75
2022/10/30 00:02:34;;;;;;;15.13;4.90;;;18.50;98.20;;;;;;5049400;28;20029;-76
2022/10/30 00:05:00;;;;;;;15.43;4.38;;;18.50;98.20;;;;;;5048747;28;20144;-75
2022/10/30 00:07:26;;;;;;;23.05;4.53;;;18.60;98.20;;;;;;5050228;28;20517;-75
2022/10/30 00:09:51;;;;;;;10.52;4.47;;;18.50;98.20;;;;;;5049945;28;20033;-74
2022/10/30 00:12:17;;;;;;;12.75;3.90;;;18.60;98.20;;;;;;5049980;28;20045;-74
2022/10/30 00:14:42;;;;;;;14.27;4.30;;;18.60;98.20;;;;;;5050037;28;20041;-75
2022/10/30 00:17:08;;;;;;;11.55;4.45;;;18.60;98.20;;;;;;5048699;28;20071;-76
2022/10/30 00:19:34;;;;;;;18.75;4.45;;;18.50;98.10;;;;;;5049854;28;20045;-75
2022/10/30 00:22:01;;;;;;;15.98;4.60;;;18.60;98.20;;;;;;5050962;28;20397;-75
2022/10/30 00:24:28;;;;;;;13.45;4.43;;;18.60;98.20;;;;;;5054022;28;20048;-75
2022/10/30 00:26:54;;;;;;;14.48;4.43;;;18.50;98.40;;;;;;5053821;28;20032;-76
2022/10/30 00:29:22;;;;;;;15.95;4.63;;;18.50;98.20;;;;;;5054235;28;20083;-76
2022/10/30 00:31:48;;;;;;;;;;;18.50;98.20;;;;;;5054410;28;20036;-75
2022/10/30 00:34:14;;;;;;;9.32;3.92;;;18.50;98.20;;;;;;5052528;28;19908;-76
2022/10/30 00:36:39;;;;;;;11.43;4.85;;;18.50;98.20;;;;;;5052783;28;20104;-76
2022/10/30 00:39:05;;;;;;;11.65;4.38;;;18.50;98.20;;;;;;5052629;28;20027;-77
2022/10/30 00:41:31;;;;;;;15.80;4.70;;;18.50;98.10;;;;;;5054016;28;20100;-76
2022/10/30 00:43:56;;;;;;;18.42;5.50;;;18.50;98.20;;;;;;5053583;28;20463;-74
2022/10/30 00:46:38;;;;;;;13.02;4.43;;;18.60;98.30;;;;;;5053369;28;20068;-76
2022/10/30 00:49:14;;;;;;;13.40;4.38;;;18.50;98.20;;;;;;5053497;28;20064;-76
2022/10/30 00:51:46;;;;;;;11.10;4.55;;;18.60;98.20;;;;;;5053291;28;20104;-75
2022/10/30 00:54:15;;;;;;;15.70;4.72;;;18.60;98.20;;;;;;5053383;28;20025;-76
2022/10/30 00:56:41;;;;;;;31.27;15.13;;;18.50;98.20;;;;;;5053814;28;20156;-76
2022/10/30 00:59:17;;;;;;;68.47;38.17;;;18.50;98.30;;;;;;5053443;28;20236;-75
2022/10/30 01:01:45;;;;;;;16.20;6.53;;;18.50;98.20;;;;;;5053422;28;20028;-75
2022/10/30 01:04:11;;;;;;;;;;;18.50;98.20;;;;;;5053487;28;20410;-75
2022/10/30 01:06:40;;;;;;;9.63;3.85;;;18.50;98.20;;;;;;5053010;28;19920;-76
2022/10/30 01:09:06;;;;;;;12.40;4.47;;;18.50;98.10;;;;;;5052059;28;22623;-75
2022/10/30 01:11:32;;;;;;;9.70;3.80;;;18.50;98.10;;;;;;5053333;28;20069;-75
2022/10/30 01:14:01;;;;;;;13.48;4.05;;;18.50;98.10;;;;;;5052891;28;20049;-75
2022/10/30 01:16:57;;;;;;;10.63;4.03;;;18.50;98.00;;;;;;5052999;28;20036;-75
2022/10/30 01:19:47;;;;;;;16.80;3.70;;;18.50;98.00;;;;;;5053235;28;20025;-75
2022/10/30 01:22:38;;;;;;;15.75;4.28;;;18.50;98.00;;;;;;5052821;28;20036;-74
2022/10/30 01:25:45;;;;;;;15.90;4.25;;;18.50;98.00;;;;;;5052733;28;20372;-77
2022/10/30 01:28:49;;;;;;;15.38;4.50;;;18.50;98.10;;;;;;5051584;28;20072;-75
2022/10/30 01:31:17;;;;;;;12.23;4.13;;;18.40;97.90;;;;;;5051613;28;20481;-74
2022/10/30 01:34:06;;;;;;;12.32;4.35;;;18.40;98.00;;;;;;5051217;28;20039;-75
2022/10/30 01:36:36;;;;;;;14.00;4.20;;;18.40;98.10;;;;;;5047134;28;20079;-76
2022/10/30 01:39:08;;;;;;;9.32;3.63;;;18.40;98.10;;;;;;5052720;28;20021;-76
2022/10/30 01:41:33;;;;;;;13.00;3.47;;;18.40;98.10;;;;;;5051923;28;20021;-75
2022/10/30 01:44:05;;;;;;;11.23;4.28;;;18.40;98.20;;;;;;5052581;28;20047;-75
2022/10/30 01:46:39;;;;;;;11.27;4.03;;;18.40;98.10;;;;;;5051337;28;20475;-77
2022/10/30 01:49:19;;;;;;;15.15;4.60;;;18.40;98.10;;;;;;5051666;28;20481;-76
2022/10/30 01:52:12;;;;;;;8.73;4.45;;;18.40;98.20;;;;;;5052715;28;20548;-77
2022/10/30 01:55:01;;;;;;;11.00;3.60;;;18.40;98.10;;;;;;5052604;28;20044;-75
2022/10/30 01:57:52;;;;;;;11.32;3.80;;;18.30;98.00;;;;;;5031288;28;20045;-74
2022/10/30 02:00:19;;;;;;;13.02;4.57;;;18.40;98.30;;;;;;5052235;28;20155;-77
2022/10/30 02:02:46;;;;;;;12.05;3.83;;;18.40;98.10;;;;;;5051621;28;20123;-75
2022/10/30 02:05:32;;;;;;;14.60;4.55;;;18.40;98.10;;;;;;5052272;28;20053;-76
2022/10/30 02:07:58;;;;;;;8.63;4.28;;;18.40;98.10;;;;;;5051125;28;20473;-75
2022/10/30 02:10:24;;;;;;;15.88;4.70;;;18.30;98.10;;;;;;5052063;28;20124;-74
2022/10/30 02:12:50;;;;;;;17.27;4.38;;;18.30;98.10;;;;;;5051664;28;20044;-74
2022/10/30 02:15:16;;;;;;;14.52;4.32;;;18.30;98.10;;;;;;5051778;28;20037;-74
2022/10/30 02:17:42;;;;;;;16.50;4.22;;;18.30;98.10;;;;;;5051139;28;20358;-74
2022/10/30 02:20:17;;;;;;;9.45;4.60;;;18.30;98.10;;;;;;5051676;28;20116;-73
2022/10/30 02:22:42;;;;;;;14.65;4.55;;;18.30;98.10;;;;;;5051953;28;20056;-73
2022/10/30 02:25:08;;;;;;;14.20;4.10;;;18.30;98.10;;;;;;5050774;28;20343;-74
2022/10/30 02:27:34;;;;;;;10.88;4.28;;;18.30;98.10;;;;;;5052191;28;20025;-74
2022/10/30 02:29:59;;;;;;;12.80;3.97;;;18.20;98.10;;;;;;5051738;28;20056;-74
2022/10/30 02:32:25;;;;;;;15.93;4.25;;;18.20;98.10;;;;;;5053343;28;20044;-75
2022/10/30 02:34:51;;;;;;;14.10;4.63;;;18.20;98.10;;;;;;5053105;28;20025;-74
2022/10/30 02:37:16;;;;;;;16.00;3.90;;;18.20;98.10;;;;;;5071625;28;20444;-74
2022/10/30 02:39:42;;;;;;;12.68;4.30;;;18.20;98.10;;;;;;5072930;28;20024;-74
2022/10/30 02:42:08;;;;;;;13.52;4.35;;;18.20;98.10;;;;;;5073860;28;20028;-75
2022/10/30 02:44:33;;;;;;;14.02;3.90;;;18.20;98.10;;;;;;5074152;28;20025;-75
2022/10/30 02:46:59;;;;;;;14.73;4.05;;;18.20;98.20;;;;;;5071072;28;20055;-75
2022/10/30 02:49:25;;;;;;;13.00;4.22;;;18.20;98.10;;;;;;5070082;28;20162;-74
2022/10/30 02:51:51;;;;;;;15.82;4.25;;;18.20;98.10;;;;;;5071185;28;20455;-75
2022/10/30 02:54:16;;;;;;;15.27;4.28;;;18.20;98.20;;;;;;5070856;28;20024;-73
2022/10/30 02:56:42;;;;;;;13.45;4.38;;;18.10;98.30;;;;;;5073083;28;20134;-74
2022/10/30 02:59:08;;;;;;;16.33;4.82;;;18.10;98.40;;;;;;5071003;28;20028;-73
2022/10/30 03:01:35;;;;;;;12.73;4.05;;;18.10;98.50;;;;;;5069466;28;20029;-75
2022/10/30 03:04:01;;;;;;;11.82;3.67;;;18.10;98.50;;;;;;5070404;28;20098;-75
2022/10/30 03:06:26;;;;;;;16.85;4.18;;;18.00;98.50;;;;;;5071095;28;20391;-74
2022/10/30 03:08:52;;;;;;;10.98;3.85;;;18.00;98.70;;;;;;5069898;28;20028;-74
2022/10/30 03:11:19;;;;;;;16.45;5.47;;;18.00;99.00;;;;;;5071281;28;20471;-75
2022/10/30 03:13:46;;;;;;;18.30;4.83;;;17.90;99.20;;;;;;5072039;28;20056;-74
2022/10/30 03:16:23;;;;;;;12.15;4.35;;;17.80;99.20;;;;;;5072472;28;20257;-76
2022/10/30 03:18:50;;;;;;;11.25;4.20;;;17.70;99.10;;;;;;5075428;28;20029;-75
2022/10/30 03:21:18;;;;;;;13.25;3.95;;;17.70;99.30;;;;;;5076508;28;20021;-75
2022/10/30 03:23:45;;;;;;;19.00;4.47;;;17.70;99.30;;;;;;5079175;28;20021;-74
2022/10/30 03:26:10;;;;;;;19.58;4.63;;;17.60;99.30;;;;;;5076210;28;20105;-75
2022/10/30 03:28:36;;;;;;;11.20;4.82;;;17.60;99.30;;;;;;5077746;28;20060;-75
2022/10/30 03:31:05;;;;;;;13.45;4.53;;;17.60;99.30;;;;;;5077834;28;20434;-74
2022/10/30 03:33:32;;;;;;;20.20;4.50;;;17.60;99.30;;;;;;5071745;28;20063;-74
2022/10/30 03:35:58;;;;;;;8.07;4.13;;;17.60;99.20;;;;;;5071532;28;20104;-74
2022/10/30 03:38:24;;;;;;;19.63;4.63;;;17.60;99.10;;;;;;5070106;28;20035;-74
2022/10/30 03:40:51;;;;;;;15.48;4.53;;;17.60;99.00;;;;;;5070510;28;20319;-74
2022/10/30 03:43:17;;;;;;;13.55;4.07;;;17.70;99.00;;;;;;5070420;28;20137;-74
2022/10/30 03:45:53;;;;;;;14.10;4.38;;;17.70;98.90;;;;;;5070257;28;20523;-74
2022/10/30 03:48:21;;;;;;;14.38;3.92;;;17.70;98.90;;;;;;5069902;28;20052;-75
2022/10/30 03:50:47;;;;;;;11.50;4.43;;;17.70;99.20;;;;;;5074908;28;20021;-73
2022/10/30 03:53:14;;;;;;;16.00;4.00;;;17.70;98.90;;;;;;5075280;28;20028;-74
2022/10/30 03:55:40;;;;;;;9.82;3.70;;;17.70;98.90;;;;;;5069909;28;20070;-73
2022/10/30 03:58:06;;;;;;;17.60;4.45;;;17.70;98.80;;;;;;5068790;28;20526;-74
2022/10/30 04:00:33;;;;;;;14.65;4.63;;;17.70;98.80;;;;;;5069933;28;20303;-74
2022/10/30 04:02:59;;;;;;;13.02;4.00;;;17.70;98.80;;;;;;5068455;28;20021;-74
2022/10/30 04:05:25;;;;;;;14.68;4.18;;;17.70;98.90;;;;;;5069368;28;20423;-74
2022/10/30 04:07:56;;;;;;;14.73;4.55;;;17.70;98.80;;;;;;5069986;28;20033;-73
2022/10/30 04:10:22;;;;;;;13.05;3.85;;;17.70;98.80;;;;;;5071014;28;20029;-73
2022/10/30 04:12:47;;;;;;;11.05;4.07;;;17.60;98.80;;;;;;5080349;28;20469;-74
2022/10/30 04:15:13;;;;;;;13.52;4.68;;;17.60;98.90;;;;;;5084377;28;20036;-73
2022/10/30 04:17:39;;;;;;;11.38;4.75;;;17.60;98.80;;;;;;5081442;28;20021;-73
2022/10/30 04:20:05;;;;;;;15.13;4.32;;;17.60;98.80;;;;;;5079837;28;20138;-73
2022/10/30 04:22:31;;;;;;;14.10;4.15;;;17.60;98.80;;;;;;5082610;28;20044;-72
2022/10/30 04:24:57;;;;;;;11.88;4.40;;;17.60;98.80;;;;;;5081650;28;20423;-73
2022/10/30 04:27:22;;;;;;;11.52;4.07;;;17.60;98.90;;;;;;5074629;28;20117;-74
2022/10/30 04:29:48;;;;;;;16.77;5.15;;;17.50;98.90;;;;;;5070467;28;20040;-74
2022/10/30 04:32:14;;;;;;;11.93;4.35;;;17.50;99.00;;;;;;5070695;28;20024;-74
2022/10/30 04:34:39;;;;;;;13.30;4.55;;;17.40;99.20;;;;;;5070181;28;20405;-74
2022/10/30 04:37:05;;;;;;;11.77;3.92;;;17.40;99.30;;;;;;5068918;28;20042;-75
2022/10/30 04:39:31;;;;;;;12.57;4.40;;;17.30;99.10;;;;;;5069970;28;20421;-75
2022/10/30 04:41:57;;;;;;;16.77;3.92;;;17.40;99.10;;;;;;5069774;28;20028;-75
2022/10/30 04:44:23;;;;;;;19.20;4.65;;;17.40;99.10;;;;;;5069140;28;20029;-75
2022/10/30 04:46:49;;;;;;;16.92;4.55;;;17.30;99.10;;;;;;5070954;28;20068;-74
2022/10/30 04:49:15;;;;;;;17.73;4.50;;;17.30;99.30;;;;;;5076593;28;20088;-74
2022/10/30 04:51:40;;;;;;;10.55;4.28;;;17.30;99.10;;;;;;5082435;28;20040;-73
2022/10/30 04:54:06;;;;;;;16.13;4.93;;;17.30;99.50;;;;;;5082093;28;20054;-74
2022/10/30 04:56:32;;;;;;;13.13;4.72;;;17.20;99.60;;;;;;5082273;28;20021;-74
2022/10/30 04:58:58;;;;;;;17.20;4.68;;;17.10;99.50;;;;;;5081725;28;20044;-74
2022/10/30 05:01:24;;;;;;;25.08;5.47;;;17.10;99.50;;;;;;5080286;28;20090;-74
2022/10/30 05:03:49;;;;;;;12.38;3.95;;;17.10;99.60;;;;;;5073554;28;20040;-74
2022/10/30 05:06:23;;;;;;;13.30;4.03;;;17.00;99.70;;;;;;5074929;28;20107;-75
2022/10/30 05:08:49;;;;;;;15.93;5.05;;;17.00;99.80;;;;;;5071785;28;20319;-75
2022/10/30 05:11:15;;;;;;;10.27;4.10;;;16.90;99.80;;;;;;5072719;28;20029;-74
2022/10/30 05:13:41;;;;;;;15.50;4.60;;;16.90;99.90;;;;;;5071658;28;20052;-74
2022/10/30 05:16:07;;;;;;;17.67;4.53;;;16.90;99.90;;;;;;5071827;28;20098;-74
2022/10/30 05:18:32;;;;;;;15.65;4.45;;;16.90;99.80;;;;;;5072805;28;20063;-73
2022/10/30 05:20:58;;;;;;;16.40;4.50;;;16.90;99.70;;;;;;5072815;28;20016;-74
2022/10/30 05:23:24;;;;;;;17.60;5.03;;;16.90;99.80;;;;;;5075189;28;20029;-73
2022/10/30 05:25:49;;;;;;;16.83;4.43;;;16.90;99.70;;;;;;5075655;28;20037;-73
2022/10/30 05:28:15;;;;;;;11.55;4.57;;;16.90;99.70;;;;;;5072351;28;20099;-73
2022/10/30 05:30:41;;;;;;;13.93;3.90;;;16.90;99.70;;;;;;5073989;28;20037;-73
2022/10/30 05:33:10;;;;;;;12.07;4.03;;;17.00;99.70;;;;;;5073624;28;20444;-73
2022/10/30 05:35:37;;;;;;;14.32;4.57;;;17.00;99.70;;;;;;5073299;28;20070;-73
2022/10/30 05:38:04;;;;;;;20.20;4.90;;;17.00;99.60;;;;;;5072426;28;20133;-74
2022/10/30 05:40:31;;;;;;;15.10;4.78;;;17.00;99.50;;;;;;5075415;28;20098;-73
2022/10/30 05:42:56;;;;;;;17.45;4.57;;;17.00;99.60;;;;;;5076750;28;20033;-73
2022/10/30 05:45:22;;;;;;;18.80;4.53;;;17.00;99.60;;;;;;5074186;28;20033;-74
2022/10/30 05:47:55;;;;;;;11.13;4.03;;;17.00;99.50;;;;;;5074203;28;20147;-74
2022/10/30 05:50:21;;;;;;;10.75;4.53;;;17.00;99.50;;;;;;5074660;28;20032;-73
2022/10/30 05:52:47;;;;;;;16.42;4.53;;;17.00;99.50;;;;;;5072985;28;20028;-73
2022/10/30 05:55:12;;;;;;;14.07;4.22;;;17.00;99.40;;;;;;5072209;28;20029;-73
2022/10/30 05:57:38;;;;;;;9.80;4.05;;;17.00;99.40;;;;;;5072928;28;20036;-72
2022/10/30 06:00:04;;;;;;;14.32;4.47;;;17.00;99.50;;;;;;5073982;28;20422;-75
2022/10/30 06:02:30;;;;;;;16.52;4.15;;;17.00;99.50;;;;;;5071366;28;20044;-74
2022/10/30 06:04:56;;;;;;;16.70;4.53;;;17.00;99.50;;;;;;5072147;28;20367;-74
2022/10/30 06:07:21;;;;;;;12.45;4.95;;;17.00;99.50;;;;;;5071951;28;20024;-73
2022/10/30 06:09:47;;;;;;;10.48;3.60;;;17.00;99.60;;;;;;5071980;28;20149;-74
2022/10/30 06:12:13;;;;;;;11.63;4.00;;;17.00;99.60;;;;;;5070557;28;20094;-73
2022/10/30 06:14:38;;;;;;;18.33;4.47;;;17.00;99.60;;;;;;5072207;28;20378;-73
2022/10/30 06:17:04;;;;;;;18.25;4.25;;;16.90;99.60;;;;;;5072138;28;20105;-74
2022/10/30 06:19:30;;;;;;;18.90;4.00;;;16.90;99.50;;;;;;5073614;28;20049;-74
2022/10/30 06:21:55;;;;;;;14.82;4.13;;;17.00;99.60;;;;;;5070526;28;20047;-73
2022/10/30 06:24:21;;;;;;;15.18;4.18;;;16.90;99.60;;;;;;5071434;28;20454;-74
2022/10/30 06:26:47;;;;;;;15.27;4.55;;;16.90;99.60;;;;;;5071714;28;20024;-74
2022/10/30 06:29:12;;;;;;;10.73;3.90;;;17.00;99.60;;;;;;5071814;28;20052;-75
2022/10/30 06:31:38;;;;;;;18.02;5.38;;;17.00;99.70;;;;;;5071347;28;20036;-78
2022/10/30 06:34:04;;;;;;;17.42;4.57;;;17.00;99.60;;;;;;5071259;28;20038;-75
2022/10/30 06:36:30;;;;;;;19.85;4.85;;;17.00;99.60;;;;;;5071748;28;20035;-75
2022/10/30 06:38:55;;;;;;;11.32;3.60;;;17.00;99.60;;;;;;5071229;28;20032;-75
2022/10/30 06:41:21;;;;;;;17.38;4.90;;;17.00;99.60;;;;;;5071891;28;20044;-75
2022/10/30 06:43:47;;;;;;;10.18;4.82;;;17.00;99.80;;;;;;5070030;28;20101;-76
2022/10/30 06:46:12;;;;;;;17.90;5.85;;;17.00;99.80;;;;;;5069961;28;20024;-74
2022/10/30 06:48:38;;;;;;;17.27;5.50;;;16.90;99.80;;;;;;5071023;28;20044;-77
2022/10/30 06:51:04;;;;;;;17.60;4.85;;;16.90;99.80;;;;;;5071219;28;20461;-76
2022/10/30 06:53:29;;;;;;;17.60;4.40;;;16.90;99.80;;;;;;5070549;28;20024;-77
2022/10/30 06:56:02;;;;;;;15.75;5.95;;;16.90;99.80;;;;;;5070071;28;20032;-78
2022/10/30 06:58:28;;;;;;;12.73;5.05;;;17.00;99.80;;;;;;5071180;28;20029;-75
2022/10/30 07:00:55;;;;;;;11.70;5.18;;;17.00;99.90;;;;;;5071336;28;20029;-76
2022/10/30 07:03:21;;;;;;;12.52;4.43;;;16.90;99.90;;;;;;5071180;28;20037;-74
2022/10/30 07:05:47;;;;;;;28.80;8.30;;;16.90;99.90;;;;;;5071174;28;20104;-75
2022/10/30 07:08:13;;;;;;;13.98;5.70;;;16.90;99.90;;;;;;5071386;28;20158;-74
2022/10/30 07:10:39;;;;;;;15.50;6.80;;;16.90;99.90;;;;;;5069885;28;20020;-75
2022/10/30 07:13:04;;;;;;;12.15;5.00;;;16.90;99.90;;;;;;5070539;28;20044;-77
2022/10/30 07:15:30;;;;;;;15.60;3.92;;;16.90;99.90;;;;;;5070971;28;20032;-76
2022/10/30 07:17:59;;;;;;;6.35;3.70;;;16.90;99.90;;;;;;5072069;28;20469;-75
2022/10/30 07:20:26;;;;;;;13.82;3.95;;;16.80;99.90;;;;;;5071011;28;20032;-75
2022/10/30 07:22:55;;;;;;;13.05;5.20;;;16.90;99.90;;;;;;5070923;28;20106;-75
2022/10/30 07:25:21;;;;;;;20.10;5.57;;;16.90;99.90;;;;;;5070424;28;20116;-75
2022/10/30 07:27:49;;;;;;;12.88;4.13;;;17.00;99.90;;;;;;5070340;28;20418;-75
2022/10/30 07:30:16;;;;;;;9.45;4.13;;;17.00;99.90;;;;;;5069077;28;20036;-75
2022/10/30 07:32:42;;;;;;;11.00;4.80;;;17.00;99.90;;;;;;5070809;28;20025;-76
2022/10/30 07:35:11;;;;;;;16.85;4.68;;;17.00;99.90;;;;;;5070563;28;20042;-76
2022/10/30 07:37:37;;;;;;;19.27;4.63;;;17.10;99.90;;;;;;5069268;28;20024;-76
2022/10/30 07:40:03;;;;;;;10.45;4.30;;;17.10;99.90;;;;;;5070289;28;20052;-76
2022/10/30 07:42:29;;;;;;;15.63;4.57;;;17.10;99.90;;;;;;5070595;28;20055;-79
2022/10/30 07:44:55;;;;;;;12.75;4.03;;;17.10;99.90;;;;;;5069349;28;20546;-78
2022/10/30 07:47:20;;;;;;;15.15;4.65;;;17.20;99.80;;;;;;5070565;28;20281;-75
2022/10/30 07:49:46;;;;;;;12.98;4.28;;;17.20;99.80;;;;;;5070813;28;20063;-75
2022/10/30 07:52:12;;;;;;;13.98;4.68;;;17.20;99.70;;;;;;5069701;28;20036;-74
2022/10/30 07:54:38;;;;;;;12.88;4.40;;;17.30;99.70;;;;;;5070251;28;20453;-75
2022/10/30 07:57:03;;;;;;;14.75;6.85;;;17.30;99.70;;;;;;5069961;28;20052;-76
2022/10/30 07:59:29;;;;;;;14.20;4.85;;;17.40;99.70;;;;;;5070427;28;20409;-77
2022/10/30 08:01:55;;;;;;;14.30;4.72;;;17.40;99.70;;;;;;5068581;28;20098;-77
2022/10/30 08:04:20;;;;;;;16.02;4.78;;;17.40;99.70;;;;;;5069848;28;20094;-75
2022/10/30 08:06:46;;;;;;;13.95;4.90;;;17.50;99.70;;;;;;5070126;28;20474;-75
2022/10/30 08:09:12;;;;;;;10.55;4.25;;;17.50;99.60;;;;;;5070291;28;20397;-75
2022/10/30 08:11:37;;;;;;;18.70;4.32;;;17.60;99.60;;;;;;5071203;28;20033;-76
2022/10/30 08:14:03;;;;;;;13.85;4.10;;;17.60;99.80;;;;;;5069571;28;20398;-74
2022/10/30 08:16:29;;;;;;;15.80;5.13;;;17.70;99.60;;;;;;5070145;28;20032;-74
2022/10/30 08:18:55;;;;;;;13.90;4.88;;;17.80;99.60;;;;;;5069988;28;20033;-76
2022/10/30 08:21:20;;;;;;;10.80;4.68;;;17.90;99.50;;;;;;5069541;28;20473;-75
2022/10/30 08:23:46;;;;;;;11.10;4.20;;;18.20;99.60;;;;;;5070173;28;20021;-74
2022/10/30 08:26:13;;;;;;;14.50;4.10;;;18.30;99.60;;;;;;5069819;28;20124;-74
2022/10/30 08:28:38;;;;;;;9.25;3.58;;;18.40;99.30;;;;;;5069940;28;20044;-75
2022/10/30 08:31:04;;;;;;;15.50;4.07;;;18.50;99.30;;;;;;5069772;28;20025;-75
2022/10/30 08:33:30;;;;;;;11.35;3.97;;;18.70;98.90;;;;;;5069611;28;20119;-74
2022/10/30 08:35:58;;;;;;;18.20;4.93;;;18.80;98.90;;;;;;5069634;28;20032;-76
2022/10/30 08:38:25;;;;;;;13.63;6.50;;;18.90;98.70;;;;;;5069029;28;20028;-74
2022/10/30 08:40:51;;;;;;;17.67;5.28;;;19.00;98.40;;;;;;5068533;28;20037;-77
2022/10/30 08:43:17;;;;;;;15.77;4.50;;;19.00;98.20;;;;;;5071348;28;20036;-77
2022/10/30 08:45:43;;;;;;;11.00;3.70;;;19.10;98.20;;;;;;5073596;28;20369;-82
2022/10/30 08:48:13;;;;;;;15.35;3.78;;;19.20;98.20;;;;;;5075066;28;20338;-79
2022/10/30 08:50:40;;;;;;;10.38;3.75;;;19.20;97.70;;;;;;5076465;28;20454;-77
2022/10/30 08:53:08;;;;;;;13.70;4.53;;;19.20;97.70;;;;;;5074161;28;20045;-76
2022/10/30 08:55:34;;;;;;;24.27;4.80;;;19.20;97.80;;;;;;5072802;28;20365;-76
2022/10/30 08:58:00;;;;;;;15.52;4.07;;;19.30;97.70;;;;;;5073718;28;20664;-76
2022/10/30 09:00:27;;;;;;;9.43;3.85;;;19.30;97.60;;;;;;5072314;28;20098;-74
2022/10/30 09:02:53;;;;;;;12.02;5.43;;;19.40;97.70;;;;;;5072216;28;20063;-76
2022/10/30 09:05:19;;;;;;;7.45;3.75;;;19.40;97.40;;;;;;5072752;28;20056;-75
2022/10/30 09:07:45;;;;;;;13.45;4.00;;;19.50;97.50;;;;;;5073275;28;20111;-76
2022/10/30 09:10:12;;;;;;;13.95;4.45;;;19.50;97.50;;;;;;5072201;28;20127;-78
2022/10/30 09:12:38;;;;;;;19.33;5.93;;;19.50;97.00;;;;;;5073035;28;20123;-77
2022/10/30 09:15:05;;;;;;;17.88;5.22;;;19.60;97.10;;;;;;5072045;28;20458;-77
2022/10/30 09:17:30;;;;;;;15.45;4.80;;;19.60;97.00;;;;;;5072674;28;20123;-87
2022/10/30 09:19:56;;;;;;;18.13;4.15;;;19.60;96.70;;;;;;5073539;28;20119;-75
2022/10/30 09:22:22;;;;;;;19.73;4.20;;;19.60;96.50;;;;;;5073422;28;20114;-75
2022/10/30 09:24:48;;;;;;;17.42;4.40;;;19.70;96.50;;;;;;5073465;28;20097;-76
2022/10/30 09:27:14;;;;;;;14.27;3.90;;;19.80;96.80;;;;;;5071737;28;20021;-75
2022/10/30 09:29:39;;;;;;;14.30;3.95;;;19.80;96.70;;;;;;5074192;28;20334;-75
2022/10/30 09:32:09;;;;;;;19.95;4.47;;;19.90;96.90;;;;;;5071779;28;20029;-75
2022/10/30 09:34:38;;;;;;;11.48;4.18;;;20.00;96.90;;;;;;5072880;28;20455;-74
2022/10/30 09:37:04;;;;;;;20.85;4.15;;;20.10;96.70;;;;;;5071870;28;20123;-75
2022/10/30 09:39:30;;;;;;;14.60;3.72;;;20.10;96.40;;;;;;5072783;28;20035;-74
2022/10/30 09:42:23;;;;;;;14.20;3.95;;;20.30;96.60;;;;;;5072794;28;20036;-76
2022/10/30 09:44:57;;;;;;;11.60;4.05;;;20.50;96.60;;;;;;5072947;28;20035;-72
2022/10/30 09:47:55;;;;;;;19.27;4.35;;;21.30;96.90;;;;;;5071921;28;20021;-75
2022/10/30 09:50:56;;;;;;;12.85;3.35;;;22.90;96.10;;;;;;5071926;28;20043;-76
2022/10/30 09:53:40;;;;;;;8.18;3.38;;;23.50;94.40;;;;;;5068952;28;20087;-74
2022/10/30 09:56:22;;;;;;;15.65;4.32;;;23.10;92.90;;;;;;5071542;28;20036;-75
2022/10/30 09:59:18;;;;;;;15.82;4.80;;;23.10;93.60;;;;;;5072733;28;20152;-77
2022/10/30 10:01:59;;;;;;;10.00;4.03;;;23.80;93.70;;;;;;5071343;28;20028;-76
2022/10/30 10:04:32;;;;;;;18.35;4.05;;;25.00;91.20;;;;;;5072660;28;20044;-76
2022/10/30 10:07:18;;;;;;;10.02;3.33;;;25.90;90.10;;;;;;5071078;28;20120;-80
2022/10/30 10:09:44;;;;;;;15.50;4.07;;;26.70;89.40;;;;;;5073352;28;20033;-76
2022/10/30 10:12:24;;;;;;;11.98;3.58;;;27.40;87.30;;;;;;5072313;28;20127;-74
2022/10/30 10:14:51;;;;;;;11.55;3.50;;;28.30;89.30;;;;;;5072067;28;20442;-74
2022/10/30 10:17:30;;;;;;;14.00;3.92;;;28.70;82.70;;;;;;5072985;28;20035;-72
2022/10/30 10:20:00;;;;;;;16.58;4.13;;;28.60;80.90;;;;;;5072252;28;20093;-73
2022/10/30 10:22:33;;;;;;;16.30;3.50;;;29.10;82.60;;;;;;5070192;28;20068;-73
2022/10/30 10:24:59;;;;;;;12.52;4.20;;;29.70;79.70;;;;;;5072148;28;20047;-73
2022/10/30 10:27:52;;;;;;;14.35;3.90;;;30.10;75.30;;;;;;5072010;28;20033;-73
2022/10/30 10:30:20;;;;;;;13.20;3.92;;;30.20;74.70;;;;;;5071803;28;20043;-72
2022/10/30 10:32:48;;;;;;;13.57;4.05;;;30.40;71.70;;;;;;5071261;28;20102;-72
2022/10/30 10:35:31;;;;;;;18.17;3.78;;;30.70;73.90;;;;;;5072160;28;20406;-72
2022/10/30 10:38:06;;;;;;;9.70;3.42;;;30.50;71.50;;;;;;5071512;28;20056;-73
2022/10/30 10:40:48;;;;;;;15.27;4.03;;;30.40;71.10;;;;;;5071537;28;20052;-71
2022/10/30 10:43:43;;;;;;;14.15;4.38;;;30.30;68.90;;;;;;5070552;28;20039;-72
2022/10/30 10:46:31;;;;;;;16.92;3.88;;;30.90;69.90;;;;;;5071909;28;20033;-73
2022/10/30 10:49:29;;;;;;;29.15;4.95;;;31.10;68.60;;;;;;5071253;28;20056;-70
2022/10/30 10:52:08;;;;;;;12.20;3.85;;;31.20;68.00;;;;;;5071020;28;20098;-74
2022/10/30 10:55:22;;;;;;;8.55;3.50;;;30.90;65.80;;;;;;5071314;28;20086;-73
2022/10/30 10:57:50;;;;;;;14.05;4.57;;;31.20;64.80;;;;;;5068052;28;20446;-70
2022/10/30 11:00:25;;;;;;;20.92;3.90;;;31.60;66.80;;;;;;5071092;28;20028;-72
2022/10/30 11:03:38;;;;;;;17.08;3.55;;;31.60;64.10;;;;;;5070845;28;20028;-71
2022/10/30 11:06:20;;;;;;;9.60;3.50;;;32.00;63.80;;;;;;5046809;28;20426;-71
2022/10/30 11:08:46;;;;;;;17.85;4.22;;;30.90;61.90;;;;;;5070191;28;20603;-71
2022/10/30 11:11:13;;;;;;;10.90;4.18;;;30.30;64.70;;;;;;5071032;28;20041;-72
2022/10/30 11:13:42;;;;;;;10.13;3.55;;;30.60;65.10;;;;;;5070735;28;20056;-71
2022/10/30 11:16:41;;;;;;;14.23;3.80;;;31.40;67.40;;;;;;5070835;28;20467;-71
2022/10/30 11:19:08;;;;;;;14.85;4.00;;;31.50;63.20;;;;;;5070922;28;20063;-71
2022/10/30 11:21:48;;;;;;;11.98;3.72;;;30.90;62.50;;;;;;5070506;28;20454;-71
2022/10/30 11:24:34;;;;;;;14.27;4.30;;;31.20;62.10;;;;;;5069654;28;20036;-72
2022/10/30 11:27:25;;;;;;;17.48;4.32;;;30.20;62.80;;;;;;5069673;28;20028;-70
2022/10/30 11:29:58;;;;;;;18.73;4.78;;;30.40;64.10;;;;;;5064691;28;20111;-70
2022/10/30 11:32:28;;;;;;;24.90;4.68;;;30.20;64.00;;;;;;5071190;28;20025;-70
2022/10/30 11:35:09;;;;;;;15.88;4.07;;;29.20;63.80;;;;;;5070754;28;20490;-71
2022/10/30 11:37:37;;;;;;;18.42;4.20;;;29.00;66.80;;;;;;5070534;28;20020;-71
2022/10/30 11:40:06;;;;;;;16.35;4.05;;;28.80;67.30;;;;;;5070865;28;20036;-71
2022/10/30 11:42:33;;;;;;;18.30;4.07;;;28.70;66.70;;;;;;5070517;28;20025;-70
2022/10/30 11:44:59;;;;;;;10.98;4.55;;;28.40;66.90;;;;;;5070680;28;20024;-70
2022/10/30 11:47:37;;;;;;;19.00;4.63;;;28.10;68.00;;;;;;5070946;28;20024;-71
2022/10/30 11:50:05;;;;;;;;;;;27.90;68.50;;;;;;5070531;28;20025;-70
2022/10/30 11:52:37;;;;;;;17.45;4.55;;;27.70;68.70;;;;;;5069715;28;19913;-69
2022/10/30 11:55:26;;;;;;;11.27;4.38;;;27.30;69.30;;;;;;5070428;28;20100;-70
2022/10/30 11:57:55;;;;;;;10.88;3.95;;;27.00;70.80;;;;;;5068932;28;20032;-70
2022/10/30 12:00:22;;;;;;;12.63;4.05;;;26.90;70.90;;;;;;5070189;28;20025;-69
2022/10/30 12:02:51;;;;;;;14.70;4.90;;;27.00;71.60;;;;;;5070041;28;20032;-69
2022/10/30 12:05:26;;;;;;;16.35;4.40;;;26.90;71.30;;;;;;5070496;28;20253;-69
2022/10/30 12:07:53;;;;;;;15.00;3.85;;;26.80;71.90;;;;;;5070176;28;20041;-71
2022/10/30 12:10:27;;;;;;;12.73;4.13;;;26.80;71.90;;;;;;5070556;28;20044;-70
2022/10/30 12:12:53;;;;;;;23.95;4.47;;;26.50;72.50;;;;;;5068759;28;20277;-69
2022/10/30 12:15:28;;;;;;;12.32;4.22;;;26.50;73.30;;;;;;5070188;28;20370;-70
2022/10/30 12:18:02;;;;;;;15.88;3.92;;;26.10;73.50;;;;;;5071790;28;20107;-70
2022/10/30 12:20:28;;;;;;;14.40;3.70;;;26.00;74.40;;;;;;5074425;28;20039;-71
2022/10/30 12:22:54;;;;;;;13.75;4.00;;;26.00;74.20;;;;;;5074046;28;20025;-71
2022/10/30 12:25:23;;;;;;;20.02;4.00;;;26.00;74.10;;;;;;5074169;28;20036;-70
2022/10/30 12:27:56;;;;;;;19.02;4.03;;;25.90;74.50;;;;;;5074254;28;20064;-71
2022/10/30 12:30:22;;;;;;;19.58;4.47;;;25.60;74.50;;;;;;5074141;28;20540;-72
2022/10/30 12:33:01;;;;;;;19.60;4.15;;;25.60;75.10;;;;;;5073018;28;20458;-70
2022/10/30 12:35:38;;;;;;;16.58;4.45;;;25.60;75.50;;;;;;5074533;28;20017;-71
2022/10/30 12:38:27;;;;;;;;;;;25.50;75.60;;;;;;5074529;28;20062;-70
2022/10/30 12:41:26;;;;;;;12.30;3.83;;;25.40;75.60;;;;;;5068158;28;19908;-72
2022/10/30 12:43:57;;;;;;;12.00;4.43;;;25.50;75.80;;;;;;5073512;28;20032;-68
2022/10/30 12:46:35;;;;;;;14.05;4.68;;;25.30;76.50;;;;;;5072768;28;20024;-68
2022/10/30 12:49:07;;;;;;;;;;;25.20;76.70;;;;;;5074211;28;20036;-68
2022/10/30 12:51:34;;;;;;;15.85;4.93;;;25.20;77.30;;;;;;5073289;28;19909;-68